createdAt,value
2022-11-30T00:00:42.586Z,96870.19
2022-11-30T00:03:09.003Z,96871.22
2022-11-30T00:05:35.339Z,96875.28
2022-11-30T00:08:01.645Z,96865.44
2022-11-30T00:10:27.909Z,96860.56
2022-11-30T00:12:54.164Z,96860.09
2022-11-30T00:15:20.419Z,96852.69
2022-11-30T00:17:46.685Z,96851.06
2022-11-30T00:20:12.923Z,96855.94
2022-11-30T00:22:39.170Z,96853.81
2022-11-30T00:25:05.413Z,96853.84
2022-11-30T00:27:31.675Z,96854.41
2022-11-30T00:29:57.947Z,96855.34
2022-11-30T00:32:24.178Z,96852.34
2022-11-30T00:34:50.433Z,96853.25
2022-11-30T00:37:16.694Z,96851.16
2022-11-30T00:39:42.947Z,96849.31
2022-11-30T00:42:09.306Z,96847.47
2022-11-30T00:44:35.562Z,96854.88
2022-11-30T00:47:01.847Z,96858.47
2022-11-30T00:49:28.098Z,96848.63
2022-11-30T00:51:54.372Z,96850.72
2022-11-30T00:54:20.635Z,96848.03
2022-11-30T00:56:46.906Z,96857.53
2022-11-30T00:59:13.224Z,96855.00
2022-11-30T01:01:39.524Z,96851.50
2022-11-30T01:04:05.831Z,96858.44
2022-11-30T01:06:32.085Z,96858.09
2022-11-30T01:08:58.350Z,96856.59
2022-11-30T01:11:24.630Z,96859.84
2022-11-30T01:13:50.869Z,96864.94
2022-11-30T01:16:17.173Z,96867.47
2022-11-30T01:18:43.445Z,96868.75
2022-11-30T01:21:09.693Z,96870.19
2022-11-30T01:23:35.946Z,96871.22
2022-11-30T01:26:02.214Z,96866.47
2022-11-30T01:28:28.461Z,96869.13
2022-11-30T01:30:54.745Z,96866.69
2022-11-30T01:33:21.016Z,96869.72
2022-11-30T01:35:47.265Z,96872.03
2022-11-30T01:38:13.681Z,96869.00
2022-11-30T01:40:39.943Z,96867.03
2022-11-30T01:43:06.182Z,96874.53
2022-11-30T01:45:32.467Z,96867.84
2022-11-30T01:47:58.722Z,96868.06
2022-11-30T01:50:25.090Z,96869.00
2022-11-30T01:52:51.338Z,96867.94
2022-11-30T01:55:17.584Z,96863.22
2022-11-30T01:57:43.895Z,96861.81
2022-11-30T02:00:10.173Z,96866.47
2022-11-30T02:02:36.420Z,96869.56
2022-11-30T02:05:02.705Z,96858.91
2022-11-30T02:07:29.008Z,96863.09
2022-11-30T02:09:55.383Z,96859.84
2022-11-30T02:12:21.617Z,96866.56
2022-11-30T02:14:48.261Z,96865.16
2022-11-30T02:17:14.897Z,96855.78
2022-11-30T02:19:41.248Z,96856.00
2022-11-30T02:22:07.493Z,96855.44
2022-11-30T02:24:33.752Z,96853.00
2022-11-30T02:26:59.989Z,96857.66
2022-11-30T02:29:26.368Z,96851.53
2022-11-30T02:31:52.624Z,96857.78
2022-11-30T02:34:18.882Z,96860.22
2022-11-30T02:36:45.148Z,96855.22
2022-11-30T02:39:11.412Z,96856.03
2022-11-30T02:41:38.296Z,96856.38
2022-11-30T02:44:04.667Z,96854.53
2022-11-30T02:46:30.947Z,96858.25
2022-11-30T02:48:57.293Z,96852.19
2022-11-30T02:51:23.570Z,96857.88
2022-11-30T02:53:49.931Z,96850.00
2022-11-30T02:56:16.179Z,96845.94
2022-11-30T02:58:42.434Z,96856.59
2022-11-30T03:01:08.717Z,96849.75
2022-11-30T03:03:34.997Z,96847.44
2022-11-30T03:06:01.267Z,96853.56
2022-11-30T03:08:27.548Z,96856.59
2022-11-30T03:10:53.820Z,96862.50
2022-11-30T03:13:20.082Z,96855.31
2022-11-30T03:15:46.394Z,96850.69
2022-11-30T03:18:12.665Z,96854.03
2022-11-30T03:20:38.944Z,96852.31
2022-11-30T03:23:05.198Z,96852.53
2022-11-30T03:25:31.465Z,96848.47
2022-11-30T03:27:57.777Z,96858.09
2022-11-30T03:30:24.054Z,96854.50
2022-11-30T03:32:50.295Z,96859.03
2022-11-30T03:35:16.558Z,96852.31
2022-11-30T03:37:42.826Z,96854.03
2022-11-30T03:40:09.075Z,96851.97
2022-11-30T03:42:35.333Z,96854.50
2022-11-30T03:45:01.583Z,96844.53
2022-11-30T03:47:27.851Z,96854.03
2022-11-30T03:49:54.089Z,96854.84
2022-11-30T03:52:20.344Z,96855.19
2022-11-30T03:54:46.979Z,96853.34
2022-11-30T03:57:13.387Z,96858.44
2022-11-30T03:59:39.640Z,96858.44
2022-11-30T04:02:05.958Z,96854.75
2022-11-30T04:04:32.310Z,96853.22
2022-11-30T04:06:58.577Z,96857.97
2022-11-30T04:09:24.863Z,96856.25
2022-11-30T04:11:51.174Z,96856.34
2022-11-30T04:14:17.446Z,96857.28
2022-11-30T04:16:43.781Z,96856.13
2022-11-30T04:19:10.041Z,96859.59
2022-11-30T04:21:36.310Z,96866.31
2022-11-30T04:24:02.574Z,96859.13
2022-11-30T04:26:28.864Z,96864.47
2022-11-30T04:28:55.115Z,96865.50
2022-11-30T04:31:21.419Z,96859.72
2022-11-30T04:33:47.726Z,96861.47
2022-11-30T04:36:13.985Z,96876.41
2022-11-30T04:38:40.248Z,96865.41
2022-11-30T04:41:06.498Z,96870.38
2022-11-30T04:43:32.739Z,96866.91
2022-11-30T04:45:59.005Z,96867.94
2022-11-30T04:48:25.278Z,96860.19
2022-11-30T04:50:51.516Z,96869.44
2022-11-30T04:53:17.768Z,96870.03
2022-11-30T04:55:44.013Z,96867.84
2022-11-30T04:58:10.254Z,96859.13
2022-11-30T05:00:36.518Z,96866.31
2022-11-30T05:03:02.826Z,96866.66
2022-11-30T05:05:29.081Z,96868.53
2022-11-30T05:07:55.386Z,96867.00
2022-11-30T05:10:21.723Z,96864.69
2022-11-30T05:12:47.962Z,96863.41
2022-11-30T05:15:14.223Z,96872.53
2022-11-30T05:17:40.469Z,96868.75
2022-11-30T05:20:06.743Z,96869.78
2022-11-30T05:22:33.021Z,96878.81
2022-11-30T05:24:59.286Z,96867.47
2022-11-30T05:27:25.533Z,96871.41
2022-11-30T05:29:51.797Z,96868.06
2022-11-30T05:32:18.051Z,96869.69
2022-11-30T05:34:50.585Z,96871.75
2022-11-30T05:37:17.781Z,96869.44
2022-11-30T05:39:44.060Z,96861.69
2022-11-30T05:42:10.359Z,96866.44
2022-11-30T05:44:36.616Z,96862.97
2022-11-30T05:47:02.913Z,96864.56
2022-11-30T05:49:29.229Z,96874.06
2022-11-30T05:51:55.473Z,96869.44
2022-11-30T05:54:21.738Z,96870.59
2022-11-30T05:56:51.588Z,96862.16
2022-11-30T05:59:20.854Z,96860.41
2022-11-30T06:01:47.269Z,96864.47
2022-11-30T06:04:13.580Z,96854.47
2022-11-30T06:06:39.851Z,96856.56
2022-11-30T06:09:06.091Z,96864.69
2022-11-30T06:11:32.337Z,96876.38
2022-11-30T06:13:58.692Z,96873.13
2022-11-30T06:16:24.973Z,96865.25
2022-11-30T06:18:51.280Z,96877.28
2022-11-30T06:21:23.978Z,96872.88
2022-11-30T06:23:50.816Z,96867.19
2022-11-30T06:26:17.057Z,96877.13
2022-11-30T06:28:47.819Z,96882.22
2022-11-30T06:31:14.979Z,96885.13
2022-11-30T06:33:41.314Z,96877.69
2022-11-30T06:36:07.569Z,96882.06
2022-11-30T06:38:33.842Z,96878.81
2022-11-30T06:41:00.195Z,96878.81
2022-11-30T06:43:26.474Z,96881.94
2022-11-30T06:45:52.796Z,96882.59
2022-11-30T06:48:19.058Z,96884.91
2022-11-30T06:50:49.845Z,96884.91
2022-11-30T06:53:16.514Z,96890.22
2022-11-30T06:55:42.781Z,96881.44
2022-11-30T06:58:09.044Z,96880.63
2022-11-30T07:00:35.316Z,96881.44
2022-11-30T07:03:01.557Z,96884.31
2022-11-30T07:05:27.816Z,96883.06
2022-11-30T07:07:54.089Z,96892.06
2022-11-30T07:10:20.565Z,96887.88
2022-11-30T07:12:46.850Z,96883.59
2022-11-30T07:15:13.185Z,96886.25
2022-11-30T07:17:39.561Z,96892.03
2022-11-30T07:20:05.817Z,96883.22
2022-11-30T07:22:32.056Z,96897.03
2022-11-30T07:24:58.384Z,96893.13
2022-11-30T07:27:24.639Z,96896.09
2022-11-30T07:29:50.881Z,96895.13
2022-11-30T07:32:17.115Z,96895.59
2022-11-30T07:34:43.374Z,96895.00
2022-11-30T07:37:09.649Z,96892.28
2022-11-30T07:39:35.884Z,96894.28
2022-11-30T07:42:02.135Z,96901.06
2022-11-30T07:44:28.377Z,96887.91
2022-11-30T07:46:54.620Z,96899.59
2022-11-30T07:49:20.895Z,96903.13
2022-11-30T07:51:47.175Z,96905.00
2022-11-30T07:54:13.422Z,96904.19
2022-11-30T07:56:39.686Z,96900.13
2022-11-30T07:59:05.921Z,96906.69
2022-11-30T08:01:32.225Z,96905.44
2022-11-30T08:03:58.692Z,96907.88
2022-11-30T08:06:25.113Z,96905.81
2022-11-30T08:08:51.363Z,96908.81
2022-11-30T08:11:17.621Z,96908.53
2022-11-30T08:13:43.863Z,96898.47
2022-11-30T08:16:10.129Z,96907.03
2022-11-30T08:18:36.383Z,96907.19
2022-11-30T08:21:02.642Z,96909.63
2022-11-30T08:23:28.892Z,96906.94
2022-11-30T08:25:55.151Z,96905.31
2022-11-30T08:28:21.399Z,96906.38
2022-11-30T08:30:47.715Z,96907.41
2022-11-30T08:33:14.009Z,96902.91
2022-11-30T08:35:40.272Z,96914.72
2022-11-30T08:38:06.539Z,96919.28
2022-11-30T08:40:32.816Z,96918.22
2022-11-30T08:42:59.082Z,96920.66
2022-11-30T08:45:25.337Z,96920.59
2022-11-30T08:47:51.570Z,96919.91
2022-11-30T08:50:17.837Z,96918.06
2022-11-30T08:52:44.116Z,96923.41
2022-11-30T08:55:10.375Z,96913.72
2022-11-30T08:57:36.643Z,96922.50
2022-11-30T09:00:04.034Z,96922.66
2022-11-30T09:02:30.331Z,96923.00
2022-11-30T09:04:56.645Z,96927.19
2022-11-30T09:07:22.943Z,96925.94
2022-11-30T09:09:49.281Z,96920.50
2022-11-30T09:12:15.560Z,96912.63
2022-11-30T09:14:41.845Z,96922.16
2022-11-30T09:17:08.118Z,96913.56
2022-11-30T09:19:34.388Z,96917.41
2022-11-30T09:22:00.644Z,96915.00
2022-11-30T09:24:26.921Z,96916.75
2022-11-30T09:26:53.193Z,96917.47
2022-11-30T09:29:19.507Z,96919.84
2022-11-30T09:31:45.789Z,96925.78
2022-11-30T09:34:12.056Z,96919.16
2022-11-30T09:36:38.373Z,96921.72
2022-11-30T09:39:04.637Z,96921.94
2022-11-30T09:41:30.931Z,96924.25
2022-11-30T09:43:57.270Z,96922.41
2022-11-30T09:46:23.591Z,96926.91
2022-11-30T09:48:49.924Z,96922.97
2022-11-30T09:51:16.217Z,96925.97
2022-11-30T09:53:42.507Z,96924.91
2022-11-30T09:56:08.832Z,96922.94
2022-11-30T09:58:35.087Z,96917.59
2022-11-30T10:01:06.669Z,96910.06
2022-11-30T10:03:33.788Z,96912.25
2022-11-30T10:06:00.148Z,96906.56
2022-11-30T10:08:26.402Z,96902.38
2022-11-30T10:10:52.643Z,96897.16
2022-11-30T10:13:18.900Z,96894.13
2022-11-30T10:15:45.399Z,96893.75
2022-11-30T10:18:11.942Z,96895.50
2022-11-30T10:20:38.192Z,96893.28
2022-11-30T10:23:04.484Z,96892.53
2022-11-30T10:25:30.733Z,96890.00
2022-11-30T10:27:57.000Z,96892.38
2022-11-30T10:30:23.296Z,96880.84
2022-11-30T10:32:49.547Z,96877.91
2022-11-30T10:35:15.800Z,96885.41
2022-11-30T10:37:42.058Z,96873.44
2022-11-30T10:40:08.325Z,96877.41
2022-11-30T10:42:34.581Z,96876.94
2022-11-30T10:45:00.821Z,96868.31
2022-11-30T10:47:27.101Z,96860.59
2022-11-30T10:49:53.371Z,96865.19
2022-11-30T10:52:19.639Z,96868.03
2022-11-30T10:54:46.374Z,96865.00
2022-11-30T10:57:12.836Z,96853.84
2022-11-30T10:59:39.157Z,96857.19
2022-11-30T11:02:05.531Z,96855.16
2022-11-30T11:04:31.874Z,96853.44
2022-11-30T11:06:58.248Z,96847.84
2022-11-30T11:09:24.552Z,96857.19
2022-11-30T11:11:50.853Z,96846.13
2022-11-30T11:14:17.118Z,96849.34
2022-11-30T11:16:43.377Z,96846.81
2022-11-30T11:19:09.631Z,96851.19
2022-11-30T11:21:35.878Z,96848.38
2022-11-30T11:24:02.146Z,96841.81
2022-11-30T11:26:28.393Z,96843.69
2022-11-30T11:28:54.640Z,96842.13
2022-11-30T11:31:20.982Z,96836.16
2022-11-30T11:33:47.246Z,96836.41
2022-11-30T11:36:13.502Z,96832.50
2022-11-30T11:38:39.768Z,96843.03
2022-11-30T11:41:06.037Z,96839.59
2022-11-30T11:43:32.281Z,96837.03
2022-11-30T11:45:58.581Z,96841.56
2022-11-30T11:48:29.044Z,96834.53
2022-11-30T11:51:06.724Z,96827.66
2022-11-30T11:53:36.950Z,96838.72
2022-11-30T11:56:05.874Z,96840.63
2022-11-30T11:58:32.211Z,96833.34
2022-11-30T12:01:23.855Z,96843.28
2022-11-30T12:03:44.818Z,96830.94
2022-11-30T12:06:11.056Z,96841.81
2022-11-30T12:08:37.313Z,96830.56
2022-11-30T12:11:03.580Z,96830.88
2022-11-30T12:13:29.832Z,96834.63
2022-11-30T12:15:56.093Z,96833.88
2022-11-30T12:18:24.266Z,96830.88
2022-11-30T12:20:50.757Z,96827.66
2022-11-30T12:23:17.001Z,96830.44
2022-11-30T12:25:43.246Z,96830.78
2022-11-30T12:28:09.486Z,96826.31
2022-11-30T12:30:35.751Z,96833.78
2022-11-30T12:33:01.990Z,96836.06
2022-11-30T12:35:28.269Z,96839.16
2022-11-30T12:37:54.574Z,96837.63
2022-11-30T12:40:20.828Z,96829.53
2022-11-30T12:42:47.074Z,96834.75
2022-11-30T12:45:13.548Z,96827.66
2022-11-30T12:47:39.802Z,96828.38
2022-11-30T12:50:06.117Z,96828.22
2022-11-30T12:52:32.384Z,96816.63
2022-11-30T12:54:58.654Z,96818.66
2022-11-30T12:57:24.939Z,96816.47
2022-11-30T12:59:51.183Z,96813.81
2022-11-30T13:02:17.477Z,96819.97
2022-11-30T13:04:43.736Z,96818.19
2022-11-30T13:07:09.998Z,96819.56
2022-11-30T13:09:36.290Z,96820.69
2022-11-30T13:12:02.530Z,96819.81
2022-11-30T13:14:28.769Z,96821.28
2022-11-30T13:16:55.008Z,96821.84
2022-11-30T13:19:22.714Z,96810.91
2022-11-30T13:21:48.987Z,96811.72
2022-11-30T13:24:15.250Z,96811.88
2022-11-30T13:26:41.498Z,96803.22
2022-11-30T13:29:07.802Z,96814.94
2022-11-30T13:31:34.232Z,96816.56
2022-11-30T13:34:00.631Z,96807.34
2022-11-30T13:36:26.883Z,96812.59
2022-11-30T13:38:53.134Z,96805.81
2022-11-30T13:41:19.369Z,96809.69
2022-11-30T13:43:45.635Z,96804.44
2022-11-30T13:46:11.944Z,96810.72
2022-11-30T13:48:38.230Z,96802.75
2022-11-30T13:51:04.493Z,96798.53
2022-11-30T13:53:30.742Z,96806.53
2022-11-30T13:55:56.989Z,96805.00
2022-11-30T13:58:23.253Z,96804.34
2022-11-30T14:00:49.525Z,96803.88
2022-11-30T14:05:59.793Z,96796.81
2022-11-30T14:08:26.038Z,96799.81
2022-11-30T14:10:52.274Z,96803.94
2022-11-30T14:13:18.538Z,96804.63
2022-11-30T14:15:44.804Z,96808.47
2022-11-30T14:18:11.064Z,96806.34
2022-11-30T14:20:38.116Z,96808.38
2022-11-30T14:23:04.591Z,96810.09
2022-11-30T14:25:30.848Z,96814.88
2022-11-30T14:27:57.111Z,96813.25
2022-11-30T14:30:23.366Z,96814.22
2022-11-30T14:32:49.639Z,96818.19
2022-11-30T14:35:15.893Z,96823.69
2022-11-30T14:37:42.160Z,96823.78
2022-11-30T14:40:08.432Z,96816.69
2022-11-30T14:42:34.704Z,96817.78
2022-11-30T14:45:00.977Z,96829.84
2022-11-30T14:47:27.315Z,96820.22
2022-11-30T14:49:53.571Z,96825.13
2022-11-30T14:52:19.818Z,96818.47
2022-11-30T14:54:46.080Z,96826.38
2022-11-30T14:57:12.389Z,96822.41
2022-11-30T14:59:38.725Z,96829.94
2022-11-30T15:02:05.019Z,96825.09
2022-11-30T15:04:31.281Z,96824.69
2022-11-30T15:06:57.533Z,96824.13
2022-11-30T15:09:23.804Z,96830.28
2022-11-30T15:11:50.045Z,96820.53
2022-11-30T15:14:16.432Z,96831.59
2022-11-30T15:16:42.732Z,96832.69
2022-11-30T15:19:09.005Z,96834.50
2022-11-30T15:21:35.268Z,96833.28
2022-11-30T15:24:01.628Z,96832.69
2022-11-30T15:26:27.940Z,96833.28
2022-11-30T15:28:54.197Z,96833.25
2022-11-30T15:31:20.543Z,96829.78
2022-11-30T15:33:46.900Z,96835.94
2022-11-30T15:36:23.415Z,96833.97
2022-11-30T15:38:57.951Z,96842.78
2022-11-30T15:41:24.227Z,96837.97
2022-11-30T15:43:50.476Z,96843.03
2022-11-30T15:46:16.879Z,96836.13
2022-11-30T15:48:43.164Z,96842.78
2022-11-30T15:51:09.394Z,96842.56
2022-11-30T15:53:35.659Z,96852.41
2022-11-30T15:56:01.907Z,96849.66
2022-11-30T15:58:28.187Z,96856.28
2022-11-30T16:00:54.481Z,96852.59
2022-11-30T16:03:20.766Z,96858.38
2022-11-30T16:05:47.034Z,96863.13
2022-11-30T16:08:13.344Z,96858.97
2022-11-30T16:10:39.701Z,96855.25
2022-11-30T16:13:05.959Z,96858.97
2022-11-30T16:15:32.235Z,96863.97
2022-11-30T16:17:58.507Z,96867.09
2022-11-30T16:20:24.802Z,96871.97
2022-11-30T16:22:51.048Z,96870.69
2022-11-30T16:25:17.312Z,96870.34
2022-11-30T16:27:43.578Z,96874.06
2022-11-30T16:30:09.852Z,96879.03
2022-11-30T16:32:36.107Z,96882.53
2022-11-30T16:35:02.354Z,96882.53
2022-11-30T16:37:28.731Z,96882.88
2022-11-30T16:39:54.966Z,96887.97
2022-11-30T16:42:21.245Z,96893.41
2022-11-30T16:44:47.512Z,96895.03
2022-11-30T16:47:13.803Z,96900.72
2022-11-30T16:49:40.046Z,96894.13
2022-11-30T16:52:06.283Z,96902.34
2022-11-30T16:54:32.539Z,96903.16
2022-11-30T16:56:58.784Z,96898.75
2022-11-30T16:59:25.035Z,96911.84
2022-11-30T17:01:51.378Z,96907.13
2022-11-30T17:04:17.738Z,96907.72
2022-11-30T17:06:47.007Z,96913.16
2022-11-30T17:09:16.035Z,96913.06
2022-11-30T17:11:42.317Z,96917.91
2022-11-30T17:14:08.570Z,96917.22
2022-11-30T17:16:34.930Z,96916.19
2022-11-30T17:19:01.215Z,96925.22
2022-11-30T17:21:27.480Z,96927.31
2022-11-30T17:23:53.745Z,96919.88
2022-11-30T17:26:19.995Z,96916.38
2022-11-30T17:28:46.259Z,96931.78
2022-11-30T17:31:12.557Z,96932.94
2022-11-30T17:33:41.329Z,96933.31
2022-11-30T17:36:11.257Z,96936.00
2022-11-30T17:38:37.507Z,96938.66
2022-11-30T17:41:03.765Z,96932.53
2022-11-30T17:43:30.027Z,96924.16
2022-11-30T17:45:56.293Z,96929.16
2022-11-30T17:48:22.605Z,96936.75
2022-11-30T17:50:48.874Z,96933.41
2022-11-30T17:53:18.112Z,96937.34
2022-11-30T17:55:44.724Z,96944.97
2022-11-30T17:58:10.994Z,96937.44
2022-11-30T18:00:37.239Z,96942.97
2022-11-30T18:03:03.533Z,96928.38
2022-11-30T18:05:29.840Z,96933.81
2022-11-30T18:07:56.143Z,96942.25
2022-11-30T18:10:22.437Z,96947.13
2022-11-30T18:12:48.695Z,96935.50
2022-11-30T18:15:14.960Z,96944.50
2022-11-30T18:17:41.246Z,96950.72
2022-11-30T18:20:07.513Z,96944.31
2022-11-30T18:22:33.771Z,96953.34
2022-11-30T18:25:00.017Z,96957.00
2022-11-30T18:27:26.306Z,96961.06
2022-11-30T18:29:52.569Z,96949.59
2022-11-30T18:32:18.924Z,96948.94
2022-11-30T18:34:45.437Z,96957.44
2022-11-30T18:37:11.851Z,96964.38
2022-11-30T18:39:38.094Z,96955.28
2022-11-30T18:42:04.341Z,96959.88
2022-11-30T18:44:30.598Z,96957.75
2022-11-30T18:46:56.854Z,96960.31
2022-11-30T18:49:23.159Z,96965.41
2022-11-30T18:51:49.415Z,96961.66
2022-11-30T18:54:15.704Z,96954.56
2022-11-30T18:56:41.983Z,96958.53
2022-11-30T18:59:08.240Z,96955.22
2022-11-30T19:01:34.647Z,96956.47
2022-11-30T19:04:00.935Z,96960.22
2022-11-30T19:06:27.196Z,96962.44
2022-11-30T19:08:53.498Z,96958.81
2022-11-30T19:11:19.760Z,96956.53
2022-11-30T19:13:46.033Z,96955.41
2022-11-30T19:16:12.302Z,96953.94
2022-11-30T19:18:38.538Z,96958.81
2022-11-30T19:21:04.777Z,96961.47
2022-11-30T19:23:31.019Z,96961.28
2022-11-30T19:25:57.284Z,96946.47
2022-11-30T19:28:23.555Z,96957.19
2022-11-30T19:30:49.856Z,96962.50
2022-11-30T19:33:16.140Z,96964.53
2022-11-30T19:35:42.468Z,96962.66
2022-11-30T19:38:08.741Z,96962.66
2022-11-30T19:40:35.019Z,96967.16
2022-11-30T19:43:01.284Z,96969.31
2022-11-30T19:45:27.529Z,96957.13
2022-11-30T19:47:53.775Z,96970.88
2022-11-30T19:50:20.059Z,96961.69
2022-11-30T19:52:46.365Z,96970.25
2022-11-30T19:55:12.658Z,96969.28
2022-11-30T19:57:38.915Z,96967.34
2022-11-30T20:00:05.159Z,96977.38
2022-11-30T20:02:31.469Z,96977.16
2022-11-30T20:04:57.754Z,96971.41
2022-11-30T20:07:24.052Z,96969.72
2022-11-30T20:09:50.326Z,96974.00
2022-11-30T20:12:16.601Z,96982.88
2022-11-30T20:14:42.890Z,96985.34
2022-11-30T20:17:09.185Z,96985.34
2022-11-30T20:19:35.444Z,96987.19
2022-11-30T20:22:01.764Z,96987.19
2022-11-30T20:24:28.016Z,96989.88
2022-11-30T20:26:54.306Z,96980.66
2022-11-30T20:29:20.580Z,96984.34
2022-11-30T20:31:46.843Z,96979.00
2022-11-30T20:34:13.113Z,96983.69
2022-11-30T20:36:39.355Z,96985.72
2022-11-30T20:39:05.623Z,96988.75
2022-11-30T20:41:31.890Z,96991.84
2022-11-30T20:43:58.161Z,96996.72
2022-11-30T20:46:24.460Z,96997.97
2022-11-30T20:48:50.800Z,96994.50
2022-11-30T20:51:33.276Z,96992.88
2022-11-30T20:53:59.957Z,96994.06
2022-11-30T20:56:26.193Z,96997.25
2022-11-30T20:58:52.459Z,96990.50
2022-11-30T21:01:18.758Z,96992.94
2022-11-30T21:03:45.120Z,96989.28
2022-11-30T21:06:11.386Z,96991.09
2022-11-30T21:08:37.621Z,96991.31
2022-11-30T21:11:04.149Z,96986.81
2022-11-30T21:13:30.410Z,96984.16
2022-11-30T21:15:56.710Z,96984.38
2022-11-30T21:18:23.128Z,96984.25
2022-11-30T21:20:49.373Z,96988.09
2022-11-30T21:23:15.618Z,96982.94
2022-11-30T21:25:41.863Z,96981.47
2022-11-30T21:28:08.102Z,96974.47
2022-11-30T21:30:34.350Z,96979.94
2022-11-30T21:33:00.612Z,96986.88
2022-11-30T21:35:26.859Z,96983.56
2022-11-30T21:37:53.143Z,96983.47
2022-11-30T21:40:19.407Z,96978.56
2022-11-30T21:42:45.658Z,96976.59
2022-11-30T21:45:11.932Z,96982.31
2022-11-30T21:47:38.199Z,96982.59
2022-11-30T21:50:04.493Z,96983.47
2022-11-30T21:52:30.785Z,96984.59
2022-11-30T21:54:57.052Z,96985.69
2022-11-30T21:57:23.335Z,96989.41
2022-11-30T21:59:49.908Z,96986.59
2022-11-30T22:02:16.454Z,96982.59
2022-11-30T22:04:42.721Z,96992.34
2022-11-30T22:07:09.006Z,96989.25
2022-11-30T22:09:35.277Z,96987.03
2022-11-30T22:12:01.555Z,96992.66
2022-11-30T22:14:27.807Z,96987.34
2022-11-30T22:16:54.063Z,96995.66
2022-11-30T22:19:20.341Z,97000.50
2022-11-30T22:21:50.006Z,96988.44
2022-11-30T22:24:16.591Z,96995.59
2022-11-30T22:26:42.848Z,96995.88
2022-11-30T22:29:09.126Z,96992.50
2022-11-30T22:31:35.466Z,96983.19
2022-11-30T22:34:01.815Z,96995.72
2022-11-30T22:36:28.090Z,96999.00
2022-11-30T22:38:54.355Z,97003.00
2022-11-30T22:41:20.627Z,96999.72
2022-11-30T22:43:46.889Z,97001.63
2022-11-30T22:46:13.178Z,96999.59
2022-11-30T22:48:39.449Z,96994.59
2022-11-30T22:51:05.701Z,97005.16
2022-11-30T22:53:31.976Z,97004.91
2022-11-30T22:55:58.307Z,96987.88
2022-11-30T22:58:24.649Z,96998.56
2022-11-30T23:00:50.903Z,96998.59
2022-11-30T23:03:17.233Z,96992.19
2022-11-30T23:05:43.592Z,96991.25
2022-11-30T23:08:09.970Z,96997.25
2022-11-30T23:10:36.392Z,96996.03
2022-11-30T23:13:02.695Z,96997.25
2022-11-30T23:15:28.969Z,96996.97
2022-11-30T23:17:55.239Z,96991.25
2022-11-30T23:20:21.553Z,96993.72
2022-11-30T23:22:47.828Z,96995.53
2022-11-30T23:25:14.107Z,96988.03
2022-11-30T23:27:40.361Z,96986.31
2022-11-30T23:30:06.643Z,96987.59
2022-11-30T23:32:32.900Z,96983.16
2022-11-30T23:34:59.137Z,96975.53
2022-11-30T23:37:25.390Z,96989.22
2022-11-30T23:39:51.641Z,96990.50
2022-11-30T23:42:17.902Z,96987.97
2022-11-30T23:44:44.207Z,96981.34
2022-11-30T23:47:15.437Z,96979.72
2022-11-30T23:49:44.342Z,96983.69
2022-11-30T23:52:10.642Z,96978.69
2022-11-30T23:54:36.966Z,96977.59
2022-11-30T23:57:03.245Z,96978.69
2022-11-30T23:59:29.525Z,96974.78
